sensor_id;sensor_type;location;lat;lon;timestamp;P1;durP1;ratioP1;P2;durP2;ratioP2
5762;SDS011;2906;53.282;9.508;2023-05-07T00:00:17;26.20;;;14.30;;
5762;SDS011;2906;53.282;9.508;2023-05-07T00:01:19;25.20;;;14.63;;
5762;SDS011;2906;53.282;9.508;2023-05-07T00:02:21;26.20;;;14.02;;
5762;SDS011;2906;53.282;9.508;2023-05-07T00:03:22;26.40;;;14.13;;
5762;SDS011;2906;53.282;9.508;2023-05-07T00:04:26;27.80;;;14.40;;
5762;SDS011;2906;53.282;9.508;2023-05-07T00:05:28;23.63;;;13.52;;
5762;SDS011;2906;53.282;9.508;2023-05-07T00:06:31;25.23;;;13.75;;
5762;SDS011;2906;53.282;9.508;2023-05-07T00:07:33;25.27;;;13.25;;
5762;SDS011;2906;53.282;9.508;2023-05-07T00:08:35;26.15;;;13.68;;
5762;SDS011;2906;53.282;9.508;2023-05-07T00:09:39;26.90;;;13.65;;
5762;SDS011;2906;53.282;9.508;2023-05-07T00:10:42;29.13;;;20.48;;
5762;SDS011;2906;53.282;9.508;2023-05-07T00:11:43;25.30;;;13.57;;
5762;SDS011;2906;53.282;9.508;2023-05-07T00:12:45;28.15;;;13.73;;
5762;SDS011;2906;53.282;9.508;2023-05-07T00:13:47;27.02;;;13.65;;
5762;SDS011;2906;53.282;9.508;2023-05-07T00:14:50;30.27;;;15.27;;
5762;SDS011;2906;53.282;9.508;2023-05-07T00:15:52;28.23;;;15.32;;
5762;SDS011;2906;53.282;9.508;2023-05-07T00:16:54;25.50;;;14.00;;
5762;SDS011;2906;53.282;9.508;2023-05-07T00:17:56;25.70;;;13.25;;
5762;SDS011;2906;53.282;9.508;2023-05-07T00:18:59;26.08;;;13.52;;
5762;SDS011;2906;53.282;9.508;2023-05-07T00:20:00;27.25;;;15.52;;
5762;SDS011;2906;53.282;9.508;2023-05-07T00:21:03;28.90;;;14.80;;
5762;SDS011;2906;53.282;9.508;2023-05-07T00:22:05;29.35;;;14.38;;
5762;SDS011;2906;53.282;9.508;2023-05-07T00:23:07;23.73;;;12.75;;
5762;SDS011;2906;53.282;9.508;2023-05-07T00:24:08;28.23;;;16.50;;
5762;SDS011;2906;53.282;9.508;2023-05-07T00:25:10;22.90;;;11.23;;
5762;SDS011;2906;53.282;9.508;2023-05-07T00:26:12;22.85;;;12.32;;
5762;SDS011;2906;53.282;9.508;2023-05-07T00:27:14;24.55;;;12.48;;
5762;SDS011;2906;53.282;9.508;2023-05-07T00:28:15;26.10;;;13.70;;
5762;SDS011;2906;53.282;9.508;2023-05-07T00:29:18;25.63;;;14.45;;
5762;SDS011;2906;53.282;9.508;2023-05-07T00:30:21;23.67;;;12.32;;
5762;SDS011;2906;53.282;9.508;2023-05-07T00:31:23;24.45;;;11.57;;
5762;SDS011;2906;53.282;9.508;2023-05-07T00:32:24;23.20;;;11.38;;
5762;SDS011;2906;53.282;9.508;2023-05-07T00:33:27;22.80;;;10.90;;
5762;SDS011;2906;53.282;9.508;2023-05-07T00:34:28;24.27;;;11.50;;
5762;SDS011;2906;53.282;9.508;2023-05-07T00:35:30;24.02;;;12.02;;
5762;SDS011;2906;53.282;9.508;2023-05-07T00:36:31;28.30;;;11.98;;
5762;SDS011;2906;53.282;9.508;2023-05-07T00:37:34;22.77;;;11.55;;
5762;SDS011;2906;53.282;9.508;2023-05-07T00:38:35;23.30;;;13.18;;
5762;SDS011;2906;53.282;9.508;2023-05-07T00:39:38;24.30;;;11.48;;
5762;SDS011;2906;53.282;9.508;2023-05-07T00:40:39;26.90;;;11.90;;
5762;SDS011;2906;53.282;9.508;2023-05-07T00:41:42;23.90;;;12.23;;
5762;SDS011;2906;53.282;9.508;2023-05-07T00:42:43;21.90;;;11.68;;
5762;SDS011;2906;53.282;9.508;2023-05-07T00:43:47;21.35;;;11.52;;
5762;SDS011;2906;53.282;9.508;2023-05-07T00:44:48;22.13;;;11.43;;
5762;SDS011;2906;53.282;9.508;2023-05-07T00:45:52;21.85;;;11.43;;
5762;SDS011;2906;53.282;9.508;2023-05-07T00:46:53;20.80;;;10.13;;
5762;SDS011;2906;53.282;9.508;2023-05-07T00:47:57;22.60;;;11.10;;
5762;SDS011;2906;53.282;9.508;2023-05-07T00:48:58;21.75;;;10.30;;
5762;SDS011;2906;53.282;9.508;2023-05-07T00:50:01;22.70;;;11.98;;
5762;SDS011;2906;53.282;9.508;2023-05-07T00:51:03;22.00;;;10.60;;
5762;SDS011;2906;53.282;9.508;2023-05-07T00:52:06;22.92;;;11.20;;
5762;SDS011;2906;53.282;9.508;2023-05-07T00:53:07;20.58;;;10.80;;
5762;SDS011;2906;53.282;9.508;2023-05-07T00:54:10;26.95;;;11.15;;
5762;SDS011;2906;53.282;9.508;2023-05-07T00:55:11;21.98;;;10.80;;
5762;SDS011;2906;53.282;9.508;2023-05-07T00:56:14;21.73;;;10.75;;
5762;SDS011;2906;53.282;9.508;2023-05-07T00:57:15;21.17;;;10.95;;
5762;SDS011;2906;53.282;9.508;2023-05-07T00:58:18;22.60;;;11.20;;
5762;SDS011;2906;53.282;9.508;2023-05-07T00:59:20;23.38;;;11.13;;
5762;SDS011;2906;53.282;9.508;2023-05-07T01:00:22;23.30;;;10.57;;
5762;SDS011;2906;53.282;9.508;2023-05-07T01:01:26;21.77;;;8.85;;
5762;SDS011;2906;53.282;9.508;2023-05-07T01:02:28;20.98;;;10.25;;
5762;SDS011;2906;53.282;9.508;2023-05-07T01:03:30;20.35;;;8.93;;
5762;SDS011;2906;53.282;9.508;2023-05-07T01:04:32;19.55;;;9.80;;
5762;SDS011;2906;53.282;9.508;2023-05-07T01:05:34;22.33;;;10.15;;
5762;SDS011;2906;53.282;9.508;2023-05-07T01:06:36;18.45;;;9.52;;
5762;SDS011;2906;53.282;9.508;2023-05-07T01:07:38;20.63;;;10.90;;
5762;SDS011;2906;53.282;9.508;2023-05-07T01:08:41;20.67;;;9.23;;
5762;SDS011;2906;53.282;9.508;2023-05-07T01:09:43;19.83;;;8.57;;
5762;SDS011;2906;53.282;9.508;2023-05-07T01:10:46;24.45;;;9.55;;
5762;SDS011;2906;53.282;9.508;2023-05-07T01:11:47;18.67;;;9.05;;
5762;SDS011;2906;53.282;9.508;2023-05-07T01:12:51;22.15;;;8.75;;
5762;SDS011;2906;53.282;9.508;2023-05-07T01:13:53;18.50;;;8.20;;
5762;SDS011;2906;53.282;9.508;2023-05-07T01:14:56;18.25;;;8.75;;
5762;SDS011;2906;53.282;9.508;2023-05-07T01:15:57;18.23;;;8.70;;
5762;SDS011;2906;53.282;9.508;2023-05-07T01:17:01;18.17;;;8.93;;
5762;SDS011;2906;53.282;9.508;2023-05-07T01:18:02;19.52;;;8.27;;
5762;SDS011;2906;53.282;9.508;2023-05-07T01:19:07;17.38;;;8.30;;
5762;SDS011;2906;53.282;9.508;2023-05-07T01:20:10;20.17;;;8.35;;
5762;SDS011;2906;53.282;9.508;2023-05-07T01:21:14;18.38;;;8.48;;
5762;SDS011;2906;53.282;9.508;2023-05-07T01:22:16;16.85;;;8.20;;
5762;SDS011;2906;53.282;9.508;2023-05-07T01:23:23;18.50;;;7.88;;
5762;SDS011;2906;53.282;9.508;2023-05-07T01:24:24;20.35;;;8.90;;
5762;SDS011;2906;53.282;9.508;2023-05-07T01:25:27;16.15;;;8.07;;
5762;SDS011;2906;53.282;9.508;2023-05-07T01:26:30;18.30;;;8.07;;
5762;SDS011;2906;53.282;9.508;2023-05-07T01:27:33;16.48;;;7.90;;
5762;SDS011;2906;53.282;9.508;2023-05-07T01:28:35;19.02;;;8.27;;
5762;SDS011;2906;53.282;9.508;2023-05-07T01:29:38;17.90;;;7.97;;
5762;SDS011;2906;53.282;9.508;2023-05-07T01:30:39;16.88;;;7.70;;
5762;SDS011;2906;53.282;9.508;2023-05-07T01:31:44;28.60;;;8.43;;
5762;SDS011;2906;53.282;9.508;2023-05-07T01:32:47;22.42;;;12.45;;
5762;SDS011;2906;53.282;9.508;2023-05-07T01:33:50;16.50;;;7.45;;
5762;SDS011;2906;53.282;9.508;2023-05-07T01:34:51;18.17;;;8.75;;
5762;SDS011;2906;53.282;9.508;2023-05-07T01:35:55;15.95;;;8.38;;
5762;SDS011;2906;53.282;9.508;2023-05-07T01:36:57;16.90;;;7.40;;
5762;SDS011;2906;53.282;9.508;2023-05-07T01:38:00;16.50;;;7.35;;
5762;SDS011;2906;53.282;9.508;2023-05-07T01:39:06;16.80;;;8.68;;
5762;SDS011;2906;53.282;9.508;2023-05-07T01:40:08;16.70;;;8.55;;
5762;SDS011;2906;53.282;9.508;2023-05-07T01:41:10;16.90;;;9.13;;
5762;SDS011;2906;53.282;9.508;2023-05-07T01:42:14;16.67;;;7.68;;
5762;SDS011;2906;53.282;9.508;2023-05-07T01:43:15;16.05;;;7.00;;
5762;SDS011;2906;53.282;9.508;2023-05-07T01:44:18;15.48;;;7.15;;
5762;SDS011;2906;53.282;9.508;2023-05-07T01:45:20;14.88;;;6.70;;
5762;SDS011;2906;53.282;9.508;2023-05-07T01:46:23;17.02;;;10.52;;
5762;SDS011;2906;53.282;9.508;2023-05-07T01:47:24;19.05;;;8.00;;
5762;SDS011;2906;53.282;9.508;2023-05-07T01:48:26;16.55;;;8.40;;
5762;SDS011;2906;53.282;9.508;2023-05-07T01:49:28;17.17;;;8.20;;
5762;SDS011;2906;53.282;9.508;2023-05-07T01:50:31;16.48;;;8.55;;
5762;SDS011;2906;53.282;9.508;2023-05-07T01:51:33;15.55;;;7.20;;
5762;SDS011;2906;53.282;9.508;2023-05-07T01:52:36;18.75;;;6.90;;
5762;SDS011;2906;53.282;9.508;2023-05-07T01:53:38;16.42;;;7.60;;
5762;SDS011;2906;53.282;9.508;2023-05-07T01:54:44;19.08;;;7.63;;
5762;SDS011;2906;53.282;9.508;2023-05-07T01:55:46;17.30;;;7.35;;
5762;SDS011;2906;53.282;9.508;2023-05-07T01:56:48;16.35;;;8.05;;
5762;SDS011;2906;53.282;9.508;2023-05-07T01:57:50;16.60;;;7.53;;
5762;SDS011;2906;53.282;9.508;2023-05-07T01:58:52;17.02;;;8.63;;
5762;SDS011;2906;53.282;9.508;2023-05-07T01:59:53;18.50;;;7.70;;
5762;SDS011;2906;53.282;9.508;2023-05-07T02:00:56;17.52;;;8.07;;
5762;SDS011;2906;53.282;9.508;2023-05-07T02:01:57;17.58;;;8.40;;
5762;SDS011;2906;53.282;9.508;2023-05-07T02:03:00;18.52;;;7.78;;
5762;SDS011;2906;53.282;9.508;2023-05-07T02:04:02;17.98;;;8.20;;
5762;SDS011;2906;53.282;9.508;2023-05-07T02:05:04;15.85;;;7.28;;
5762;SDS011;2906;53.282;9.508;2023-05-07T02:06:05;16.83;;;8.05;;
5762;SDS011;2906;53.282;9.508;2023-05-07T02:07:08;16.05;;;7.95;;
5762;SDS011;2906;53.282;9.508;2023-05-07T02:08:10;15.82;;;7.55;;
5762;SDS011;2906;53.282;9.508;2023-05-07T02:09:13;17.50;;;8.00;;
5762;SDS011;2906;53.282;9.508;2023-05-07T02:10:16;16.17;;;7.85;;
5762;SDS011;2906;53.282;9.508;2023-05-07T02:11:18;16.38;;;7.50;;
5762;SDS011;2906;53.282;9.508;2023-05-07T02:12:20;17.63;;;8.30;;
5762;SDS011;2906;53.282;9.508;2023-05-07T02:13:22;16.55;;;8.43;;
5762;SDS011;2906;53.282;9.508;2023-05-07T02:14:24;15.77;;;7.72;;
5762;SDS011;2906;53.282;9.508;2023-05-07T02:15:27;15.15;;;7.38;;
5762;SDS011;2906;53.282;9.508;2023-05-07T02:16:28;17.83;;;7.93;;
5762;SDS011;2906;53.282;9.508;2023-05-07T02:17:31;16.20;;;7.90;;
5762;SDS011;2906;53.282;9.508;2023-05-07T02:18:33;17.30;;;8.40;;
5762;SDS011;2906;53.282;9.508;2023-05-07T02:19:35;21.48;;;8.52;;
5762;SDS011;2906;53.282;9.508;2023-05-07T02:20:37;20.35;;;8.82;;
5762;SDS011;2906;53.282;9.508;2023-05-07T02:21:39;16.73;;;8.93;;
5762;SDS011;2906;53.282;9.508;2023-05-07T02:22:40;16.90;;;10.20;;
5762;SDS011;2906;53.282;9.508;2023-05-07T02:23:42;19.85;;;12.40;;
5762;SDS011;2906;53.282;9.508;2023-05-07T02:24:44;17.15;;;8.23;;
5762;SDS011;2906;53.282;9.508;2023-05-07T02:25:48;18.50;;;9.52;;
5762;SDS011;2906;53.282;9.508;2023-05-07T02:26:49;17.00;;;8.18;;
5762;SDS011;2906;53.282;9.508;2023-05-07T02:27:51;17.20;;;8.48;;
5762;SDS011;2906;53.282;9.508;2023-05-07T02:28:52;17.38;;;8.25;;
5762;SDS011;2906;53.282;9.508;2023-05-07T02:29:55;16.60;;;8.05;;
5762;SDS011;2906;53.282;9.508;2023-05-07T02:30:56;17.92;;;9.10;;
5762;SDS011;2906;53.282;9.508;2023-05-07T02:32:00;19.30;;;8.70;;
5762;SDS011;2906;53.282;9.508;2023-05-07T02:33:01;17.83;;;8.40;;
5762;SDS011;2906;53.282;9.508;2023-05-07T02:34:08;18.67;;;10.15;;
5762;SDS011;2906;53.282;9.508;2023-05-07T02:35:09;16.48;;;8.45;;
5762;SDS011;2906;53.282;9.508;2023-05-07T02:36:11;18.92;;;11.90;;
5762;SDS011;2906;53.282;9.508;2023-05-07T02:37:13;17.65;;;9.13;;
5762;SDS011;2906;53.282;9.508;2023-05-07T02:38:16;17.00;;;9.85;;
5762;SDS011;2906;53.282;9.508;2023-05-07T02:39:17;21.92;;;8.50;;
5762;SDS011;2906;53.282;9.508;2023-05-07T02:40:20;16.95;;;8.35;;
5762;SDS011;2906;53.282;9.508;2023-05-07T02:41:22;20.08;;;9.00;;
5762;SDS011;2906;53.282;9.508;2023-05-07T02:42:24;18.98;;;10.50;;
5762;SDS011;2906;53.282;9.508;2023-05-07T02:43:26;20.83;;;8.63;;
5762;SDS011;2906;53.282;9.508;2023-05-07T02:44:28;16.40;;;8.50;;
5762;SDS011;2906;53.282;9.508;2023-05-07T02:45:31;18.63;;;10.80;;
5762;SDS011;2906;53.282;9.508;2023-05-07T02:46:33;17.45;;;9.35;;
5762;SDS011;2906;53.282;9.508;2023-05-07T02:47:35;17.15;;;9.15;;
5762;SDS011;2906;53.282;9.508;2023-05-07T02:48:37;16.90;;;8.15;;
5762;SDS011;2906;53.282;9.508;2023-05-07T02:49:39;17.42;;;7.80;;
5762;SDS011;2906;53.282;9.508;2023-05-07T02:50:41;19.95;;;13.70;;
5762;SDS011;2906;53.282;9.508;2023-05-07T02:51:42;18.33;;;11.60;;
5762;SDS011;2906;53.282;9.508;2023-05-07T02:52:45;18.63;;;10.30;;
5762;SDS011;2906;53.282;9.508;2023-05-07T02:53:47;16.52;;;8.63;;
5762;SDS011;2906;53.282;9.508;2023-05-07T02:54:49;17.88;;;8.75;;
5762;SDS011;2906;53.282;9.508;2023-05-07T02:55:51;17.27;;;8.80;;
5762;SDS011;2906;53.282;9.508;2023-05-07T02:56:55;17.83;;;9.75;;
5762;SDS011;2906;53.282;9.508;2023-05-07T02:57:56;19.67;;;10.10;;
5762;SDS011;2906;53.282;9.508;2023-05-07T02:58:59;16.00;;;7.65;;
5762;SDS011;2906;53.282;9.508;2023-05-07T03:00:09;17.08;;;8.02;;
5762;SDS011;2906;53.282;9.508;2023-05-07T03:01:12;18.60;;;10.27;;
5762;SDS011;2906;53.282;9.508;2023-05-07T03:02:14;19.38;;;8.20;;
5762;SDS011;2906;53.282;9.508;2023-05-07T03:03:17;17.10;;;8.18;;
5762;SDS011;2906;53.282;9.508;2023-05-07T03:04:18;17.50;;;8.70;;
5762;SDS011;2906;53.282;9.508;2023-05-07T03:05:20;17.75;;;8.80;;
5762;SDS011;2906;53.282;9.508;2023-05-07T03:06:22;19.20;;;9.48;;
5762;SDS011;2906;53.282;9.508;2023-05-07T03:07:24;20.05;;;12.98;;
5762;SDS011;2906;53.282;9.508;2023-05-07T03:08:26;18.23;;;9.93;;
5762;SDS011;2906;53.282;9.508;2023-05-07T03:09:28;21.88;;;11.63;;
5762;SDS011;2906;53.282;9.508;2023-05-07T03:10:30;17.73;;;8.98;;
5762;SDS011;2906;53.282;9.508;2023-05-07T03:11:32;20.48;;;12.45;;
5762;SDS011;2906;53.282;9.508;2023-05-07T03:12:35;19.27;;;9.30;;
5762;SDS011;2906;53.282;9.508;2023-05-07T03:13:37;20.85;;;12.63;;
5762;SDS011;2906;53.282;9.508;2023-05-07T03:14:38;19.20;;;9.15;;
5762;SDS011;2906;53.282;9.508;2023-05-07T03:15:41;21.80;;;14.25;;
5762;SDS011;2906;53.282;9.508;2023-05-07T03:16:42;18.88;;;9.70;;
5762;SDS011;2906;53.282;9.508;2023-05-07T03:17:45;21.33;;;11.85;;
5762;SDS011;2906;53.282;9.508;2023-05-07T03:18:46;25.77;;;20.25;;
5762;SDS011;2906;53.282;9.508;2023-05-07T03:19:49;18.50;;;10.65;;
5762;SDS011;2906;53.282;9.508;2023-05-07T03:20:51;18.75;;;10.15;;
5762;SDS011;2906;53.282;9.508;2023-05-07T03:21:53;18.60;;;12.98;;
5762;SDS011;2906;53.282;9.508;2023-05-07T03:22:55;23.25;;;13.57;;
5762;SDS011;2906;53.282;9.508;2023-05-07T03:23:58;20.13;;;11.43;;
5762;SDS011;2906;53.282;9.508;2023-05-07T03:24:59;18.83;;;10.73;;
5762;SDS011;2906;53.282;9.508;2023-05-07T03:26:01;16.48;;;8.10;;
5762;SDS011;2906;53.282;9.508;2023-05-07T03:27:03;18.98;;;9.27;;
5762;SDS011;2906;53.282;9.508;2023-05-07T03:28:06;17.85;;;9.18;;
5762;SDS011;2906;53.282;9.508;2023-05-07T03:29:08;19.42;;;12.30;;
5762;SDS011;2906;53.282;9.508;2023-05-07T03:30:11;19.35;;;9.82;;
5762;SDS011;2906;53.282;9.508;2023-05-07T03:31:12;19.65;;;10.55;;
5762;SDS011;2906;53.282;9.508;2023-05-07T03:32:15;16.30;;;8.65;;
5762;SDS011;2906;53.282;9.508;2023-05-07T03:33:16;18.38;;;8.52;;
5762;SDS011;2906;53.282;9.508;2023-05-07T03:34:18;17.13;;;7.85;;
5762;SDS011;2906;53.282;9.508;2023-05-07T03:35:22;18.60;;;8.13;;
5762;SDS011;2906;53.282;9.508;2023-05-07T03:36:24;16.30;;;7.60;;
5762;SDS011;2906;53.282;9.508;2023-05-07T03:37:27;19.42;;;8.65;;
5762;SDS011;2906;53.282;9.508;2023-05-07T03:38:28;23.08;;;13.63;;
5762;SDS011;2906;53.282;9.508;2023-05-07T03:39:31;21.38;;;10.25;;
5762;SDS011;2906;53.282;9.508;2023-05-07T03:40:32;20.55;;;10.68;;
5762;SDS011;2906;53.282;9.508;2023-05-07T03:41:34;19.88;;;11.68;;
5762;SDS011;2906;53.282;9.508;2023-05-07T03:42:36;20.02;;;9.73;;
5762;SDS011;2906;53.282;9.508;2023-05-07T03:43:39;21.83;;;10.35;;
5762;SDS011;2906;53.282;9.508;2023-05-07T03:44:41;19.63;;;11.60;;
5762;SDS011;2906;53.282;9.508;2023-05-07T03:45:43;18.25;;;9.30;;
5762;SDS011;2906;53.282;9.508;2023-05-07T03:46:44;21.77;;;10.00;;
5762;SDS011;2906;53.282;9.508;2023-05-07T03:47:47;19.58;;;10.23;;
5762;SDS011;2906;53.282;9.508;2023-05-07T03:48:48;19.35;;;8.95;;
5762;SDS011;2906;53.282;9.508;2023-05-07T03:49:50;18.63;;;9.90;;
5762;SDS011;2906;53.282;9.508;2023-05-07T03:50:54;16.55;;;7.97;;
5762;SDS011;2906;53.282;9.508;2023-05-07T03:51:56;19.63;;;8.75;;
5762;SDS011;2906;53.282;9.508;2023-05-07T03:52:57;21.20;;;8.77;;
5762;SDS011;2906;53.282;9.508;2023-05-07T03:54:00;18.70;;;9.05;;
5762;SDS011;2906;53.282;9.508;2023-05-07T03:55:01;18.38;;;8.35;;
5762;SDS011;2906;53.282;9.508;2023-05-07T03:56:04;17.73;;;9.27;;
5762;SDS011;2906;53.282;9.508;2023-05-07T03:57:05;19.13;;;10.70;;
5762;SDS011;2906;53.282;9.508;2023-05-07T03:58:08;18.83;;;8.63;;
5762;SDS011;2906;53.282;9.508;2023-05-07T03:59:11;18.55;;;8.93;;
5762;SDS011;2906;53.282;9.508;2023-05-07T04:00:14;19.63;;;9.32;;
5762;SDS011;2906;53.282;9.508;2023-05-07T04:01:15;18.35;;;9.30;;
5762;SDS011;2906;53.282;9.508;2023-05-07T04:02:18;18.40;;;9.88;;
5762;SDS011;2906;53.282;9.508;2023-05-07T04:03:19;19.05;;;9.48;;
5762;SDS011;2906;53.282;9.508;2023-05-07T04:04:22;19.45;;;8.45;;
5762;SDS011;2906;53.282;9.508;2023-05-07T04:05:23;18.70;;;9.20;;
5762;SDS011;2906;53.282;9.508;2023-05-07T04:06:26;19.30;;;9.23;;
5762;SDS011;2906;53.282;9.508;2023-05-07T04:07:27;19.17;;;9.15;;
5762;SDS011;2906;53.282;9.508;2023-05-07T04:08:30;17.65;;;8.70;;
5762;SDS011;2906;53.282;9.508;2023-05-07T04:09:31;20.05;;;8.98;;
5762;SDS011;2906;53.282;9.508;2023-05-07T04:10:33;18.67;;;8.93;;
5762;SDS011;2906;53.282;9.508;2023-05-07T04:11:35;19.10;;;8.93;;
5762;SDS011;2906;53.282;9.508;2023-05-07T04:12:40;18.48;;;9.15;;
5762;SDS011;2906;53.282;9.508;2023-05-07T04:13:41;17.73;;;9.40;;
5762;SDS011;2906;53.282;9.508;2023-05-07T04:14:44;17.58;;;8.30;;
5762;SDS011;2906;53.282;9.508;2023-05-07T04:15:46;16.50;;;7.90;;
5762;SDS011;2906;53.282;9.508;2023-05-07T04:16:49;18.73;;;9.57;;
5762;SDS011;2906;53.282;9.508;2023-05-07T04:17:50;21.90;;;12.32;;
5762;SDS011;2906;53.282;9.508;2023-05-07T04:18:52;18.85;;;10.88;;
5762;SDS011;2906;53.282;9.508;2023-05-07T04:19:54;17.90;;;9.25;;
5762;SDS011;2906;53.282;9.508;2023-05-07T04:20:56;17.45;;;8.60;;
5762;SDS011;2906;53.282;9.508;2023-05-07T04:21:57;16.90;;;8.65;;
5762;SDS011;2906;53.282;9.508;2023-05-07T04:23:00;18.23;;;9.85;;
5762;SDS011;2906;53.282;9.508;2023-05-07T04:24:02;18.27;;;8.30;;
5762;SDS011;2906;53.282;9.508;2023-05-07T04:25:05;20.00;;;9.48;;
5762;SDS011;2906;53.282;9.508;2023-05-07T04:26:06;17.85;;;8.52;;
5762;SDS011;2906;53.282;9.508;2023-05-07T04:27:09;16.92;;;8.13;;
5762;SDS011;2906;53.282;9.508;2023-05-07T04:28:11;21.88;;;8.93;;
5762;SDS011;2906;53.282;9.508;2023-05-07T04:29:14;18.50;;;8.43;;
5762;SDS011;2906;53.282;9.508;2023-05-07T04:30:16;16.80;;;8.05;;
5762;SDS011;2906;53.282;9.508;2023-05-07T04:31:19;18.30;;;8.60;;
5762;SDS011;2906;53.282;9.508;2023-05-07T04:32:20;19.90;;;9.05;;
5762;SDS011;2906;53.282;9.508;2023-05-07T04:33:25;18.65;;;9.05;;
5762;SDS011;2906;53.282;9.508;2023-05-07T04:34:26;17.77;;;8.75;;
5762;SDS011;2906;53.282;9.508;2023-05-07T04:35:28;18.52;;;9.15;;
5762;SDS011;2906;53.282;9.508;2023-05-07T04:36:30;22.08;;;9.25;;
5762;SDS011;2906;53.282;9.508;2023-05-07T04:37:33;18.63;;;8.77;;
5762;SDS011;2906;53.282;9.508;2023-05-07T04:38:35;18.80;;;9.23;;
5762;SDS011;2906;53.282;9.508;2023-05-07T04:39:37;17.67;;;8.50;;
5762;SDS011;2906;53.282;9.508;2023-05-07T04:40:38;23.40;;;13.55;;
5762;SDS011;2906;53.282;9.508;2023-05-07T04:41:41;18.50;;;10.05;;
5762;SDS011;2906;53.282;9.508;2023-05-07T04:42:42;20.58;;;9.65;;
5762;SDS011;2906;53.282;9.508;2023-05-07T04:43:45;19.95;;;9.52;;
5762;SDS011;2906;53.282;9.508;2023-05-07T04:44:46;18.80;;;9.30;;
5762;SDS011;2906;53.282;9.508;2023-05-07T04:45:51;21.65;;;14.40;;
5762;SDS011;2906;53.282;9.508;2023-05-07T04:46:52;19.75;;;9.77;;
5762;SDS011;2906;53.282;9.508;2023-05-07T04:47:54;21.02;;;12.95;;
5762;SDS011;2906;53.282;9.508;2023-05-07T04:48:56;21.83;;;12.55;;
5762;SDS011;2906;53.282;9.508;2023-05-07T04:49:58;18.95;;;9.40;;
5762;SDS011;2906;53.282;9.508;2023-05-07T04:50:59;19.13;;;9.02;;
5762;SDS011;2906;53.282;9.508;2023-05-07T04:52:02;33.30;;;8.82;;
5762;SDS011;2906;53.282;9.508;2023-05-07T04:53:03;17.92;;;8.68;;
5762;SDS011;2906;53.282;9.508;2023-05-07T04:54:06;20.58;;;11.80;;
5762;SDS011;2906;53.282;9.508;2023-05-07T04:55:07;19.10;;;9.60;;
5762;SDS011;2906;53.282;9.508;2023-05-07T04:56:10;21.17;;;11.77;;
5762;SDS011;2906;53.282;9.508;2023-05-07T04:57:11;19.27;;;9.48;;
5762;SDS011;2906;53.282;9.508;2023-05-07T04:58:14;23.52;;;10.80;;
5762;SDS011;2906;53.282;9.508;2023-05-07T04:59:15;20.75;;;10.48;;
5762;SDS011;2906;53.282;9.508;2023-05-07T05:00:18;20.95;;;9.05;;
5762;SDS011;2906;53.282;9.508;2023-05-07T05:01:21;19.95;;;9.15;;
5762;SDS011;2906;53.282;9.508;2023-05-07T05:02:23;22.70;;;9.27;;
5762;SDS011;2906;53.282;9.508;2023-05-07T05:03:24;19.25;;;9.73;;
5762;SDS011;2906;53.282;9.508;2023-05-07T05:04:27;20.88;;;10.70;;
5762;SDS011;2906;53.282;9.508;2023-05-07T05:05:28;21.25;;;8.82;;
5762;SDS011;2906;53.282;9.508;2023-05-07T05:06:31;19.58;;;8.80;;
5762;SDS011;2906;53.282;9.508;2023-05-07T05:07:33;20.65;;;9.50;;
5762;SDS011;2906;53.282;9.508;2023-05-07T05:08:35;20.67;;;10.32;;
5762;SDS011;2906;53.282;9.508;2023-05-07T05:09:37;18.95;;;9.52;;
5762;SDS011;2906;53.282;9.508;2023-05-07T05:10:38;21.88;;;11.75;;
5762;SDS011;2906;53.282;9.508;2023-05-07T05:11:41;20.40;;;10.15;;
5762;SDS011;2906;53.282;9.508;2023-05-07T05:12:43;19.42;;;11.27;;
5762;SDS011;2906;53.282;9.508;2023-05-07T05:13:45;20.15;;;9.75;;
5762;SDS011;2906;53.282;9.508;2023-05-07T05:14:49;20.70;;;10.25;;
5762;SDS011;2906;53.282;9.508;2023-05-07T05:15:51;19.38;;;9.38;;
5762;SDS011;2906;53.282;9.508;2023-05-07T05:16:54;21.10;;;10.00;;
5762;SDS011;2906;53.282;9.508;2023-05-07T05:17:56;21.13;;;11.85;;
5762;SDS011;2906;53.282;9.508;2023-05-07T05:18:57;22.67;;;14.45;;
5762;SDS011;2906;53.282;9.508;2023-05-07T05:20:00;22.08;;;11.00;;
5762;SDS011;2906;53.282;9.508;2023-05-07T05:21:01;19.90;;;9.52;;
5762;SDS011;2906;53.282;9.508;2023-05-07T05:22:04;20.45;;;10.35;;
5762;SDS011;2906;53.282;9.508;2023-05-07T05:23:05;21.60;;;9.77;;
5762;SDS011;2906;53.282;9.508;2023-05-07T05:24:07;22.48;;;10.77;;
5762;SDS011;2906;53.282;9.508;2023-05-07T05:25:09;21.45;;;10.07;;
5762;SDS011;2906;53.282;9.508;2023-05-07T05:26:11;28.50;;;18.70;;
5762;SDS011;2906;53.282;9.508;2023-05-07T05:27:12;23.25;;;12.95;;
5762;SDS011;2906;53.282;9.508;2023-05-07T05:28:15;20.45;;;10.43;;
5762;SDS011;2906;53.282;9.508;2023-05-07T05:29:17;24.55;;;13.52;;
5762;SDS011;2906;53.282;9.508;2023-05-07T05:30:19;21.58;;;11.57;;
5762;SDS011;2906;53.282;9.508;2023-05-07T05:31:20;19.75;;;10.90;;
5762;SDS011;2906;53.282;9.508;2023-05-07T05:32:24;23.45;;;12.55;;
5762;SDS011;2906;53.282;9.508;2023-05-07T05:33:25;21.48;;;10.93;;
5762;SDS011;2906;53.282;9.508;2023-05-07T05:34:28;24.35;;;12.10;;
5762;SDS011;2906;53.282;9.508;2023-05-07T05:35:29;20.60;;;9.70;;
5762;SDS011;2906;53.282;9.508;2023-05-07T05:36:32;19.90;;;9.15;;
5762;SDS011;2906;53.282;9.508;2023-05-07T05:37:33;20.33;;;9.63;;
5762;SDS011;2906;53.282;9.508;2023-05-07T05:38:35;18.65;;;8.25;;
5762;SDS011;2906;53.282;9.508;2023-05-07T05:39:36;21.17;;;10.50;;
5762;SDS011;2906;53.282;9.508;2023-05-07T05:40:39;19.67;;;9.50;;
5762;SDS011;2906;53.282;9.508;2023-05-07T05:41:40;20.33;;;9.00;;
5762;SDS011;2906;53.282;9.508;2023-05-07T05:42:43;19.58;;;10.57;;
5762;SDS011;2906;53.282;9.508;2023-05-07T05:43:44;20.60;;;9.10;;
5762;SDS011;2906;53.282;9.508;2023-05-07T05:44:47;17.50;;;9.63;;
5762;SDS011;2906;53.282;9.508;2023-05-07T05:45:48;20.05;;;9.00;;
5762;SDS011;2906;53.282;9.508;2023-05-07T05:46:50;21.73;;;8.43;;
5762;SDS011;2906;53.282;9.508;2023-05-07T05:47:53;20.65;;;9.60;;
5762;SDS011;2906;53.282;9.508;2023-05-07T05:48:58;19.58;;;10.68;;
5762;SDS011;2906;53.282;9.508;2023-05-07T05:50:00;18.77;;;10.70;;
5762;SDS011;2906;53.282;9.508;2023-05-07T05:51:01;20.83;;;9.07;;
5762;SDS011;2906;53.282;9.508;2023-05-07T05:52:04;19.52;;;8.38;;
5762;SDS011;2906;53.282;9.508;2023-05-07T05:53:06;18.23;;;8.48;;
5762;SDS011;2906;53.282;9.508;2023-05-07T05:54:08;18.13;;;8.63;;
5762;SDS011;2906;53.282;9.508;2023-05-07T05:55:09;19.38;;;10.93;;
5762;SDS011;2906;53.282;9.508;2023-05-07T05:56:12;17.20;;;8.88;;
5762;SDS011;2906;53.282;9.508;2023-05-07T05:57:13;17.98;;;9.27;;
5762;SDS011;2906;53.282;9.508;2023-05-07T05:58:16;18.25;;;10.98;;
5762;SDS011;2906;53.282;9.508;2023-05-07T05:59:17;19.83;;;9.77;;
5762;SDS011;2906;53.282;9.508;2023-05-07T06:00:20;19.90;;;9.40;;
5762;SDS011;2906;53.282;9.508;2023-05-07T06:01:22;18.00;;;8.60;;
5762;SDS011;2906;53.282;9.508;2023-05-07T06:02:25;23.23;;;8.25;;
5762;SDS011;2906;53.282;9.508;2023-05-07T06:03:27;17.70;;;8.52;;
5762;SDS011;2906;53.282;9.508;2023-05-07T06:04:30;18.45;;;8.45;;
5762;SDS011;2906;53.282;9.508;2023-05-07T06:05:31;20.10;;;8.40;;
5762;SDS011;2906;53.282;9.508;2023-05-07T06:06:34;21.38;;;9.32;;
5762;SDS011;2906;53.282;9.508;2023-05-07T06:07:35;22.05;;;9.25;;
5762;SDS011;2906;53.282;9.508;2023-05-07T06:08:37;19.55;;;8.40;;
5762;SDS011;2906;53.282;9.508;2023-05-07T06:09:39;18.67;;;8.63;;
5762;SDS011;2906;53.282;9.508;2023-05-07T06:10:41;22.17;;;12.48;;
5762;SDS011;2906;53.282;9.508;2023-05-07T06:11:42;20.23;;;8.90;;
5762;SDS011;2906;53.282;9.508;2023-05-07T06:12:45;22.63;;;12.63;;
5762;SDS011;2906;53.282;9.508;2023-05-07T06:13:46;21.65;;;10.38;;
5762;SDS011;2906;53.282;9.508;2023-05-07T06:14:49;20.05;;;8.55;;
5762;SDS011;2906;53.282;9.508;2023-05-07T06:15:50;21.15;;;9.13;;
5762;SDS011;2906;53.282;9.508;2023-05-07T06:16:52;19.83;;;10.35;;
5762;SDS011;2906;53.282;9.508;2023-05-07T06:17:54;21.90;;;10.18;;